Friday, January 19, 2018, 10:32 PM EST
Back to Local

KCJR, Culpeper, Culpeper County Airport

Location: Elkwood, VA, United States Lat: 38.527
Local Time: 10:32 PM EST ( 3:32 GMT) Lon: -77.859
Time Zone: US/Eastern Elev: 311 ft

Show me the last for .
Show Decoded

2018-01-19 22:15 METAR KCJR 200315Z AUTO 00000KT 10SM CLR M03/M10 A3006 RMK AO2 T10291098 =
2018-01-19 21:55 METAR KCJR 200255Z AUTO 00000KT 10SM CLR M02/M10 A3005 RMK AO2 T10221103 =
2018-01-19 21:35 METAR KCJR 200235Z AUTO 00000KT 10SM CLR M03/M10 A3005 RMK AO2 T10261104 =
2018-01-19 21:15 METAR KCJR 200215Z AUTO 00000KT 10SM CLR M01/M10 A3005 RMK AO2 T10111105 =
2018-01-19 20:55 METAR KCJR 200155Z AUTO 00000KT 10SM CLR 00/M10 A3005 RMK AO2 T10041105 =
2018-01-19 20:35 METAR KCJR 200135Z AUTO 20003KT 10SM CLR 00/M11 A3005 RMK AO2 T10031108 =
2018-01-19 20:15 METAR KCJR 200115Z AUTO 00000KT 10SM CLR 00/M12 A3005 RMK AO2 T10051116 =
2018-01-19 19:55 METAR KCJR 200055Z AUTO 00000KT 10SM CLR 00/M12 A3005 RMK AO2 T00001120 =
2018-01-19 19:35 METAR KCJR 200035Z AUTO 00000KT 10SM CLR 00/M10 A3005 RMK AO2 T10021104 =
2018-01-19 19:15 METAR KCJR 200015Z AUTO 00000KT 10SM CLR 01/M11 A3005 RMK AO2 T00061109 =
2018-01-19 18:55 METAR KCJR 192355Z AUTO 00000KT 10SM CLR 01/M10 A3005 RMK AO2 T00061103 10138
                 20001 =
2018-01-19 18:35 METAR KCJR 192335Z AUTO 22003KT 10SM CLR 00/M09 A3005 RMK AO2 T00011095 =
2018-01-19 18:15 METAR KCJR 192315Z AUTO 00000KT 10SM CLR 02/M11 A3005 RMK AO2 T00161106 =
2018-01-19 17:55 METAR KCJR 192255Z AUTO 00000KT 10SM CLR 03/M11 A3004 RMK AO2 T00291110 =
2018-01-19 17:35 METAR KCJR 192235Z AUTO 00000KT 10SM CLR 05/M12 A3004 RMK AO2 T00501122 =
2018-01-19 17:15 METAR KCJR 192215Z AUTO 00000KT 10SM CLR 09/M17 A3004 RMK AO2 T00861170 =
2018-01-19 16:55 METAR KCJR 192155Z AUTO 20003KT 10SM CLR 12/M19 A3004 RMK AO2 T01191194 =
2018-01-19 16:35 METAR KCJR 192135Z AUTO 21003KT 10SM CLR 13/M22 A3004 RMK AO2 T01301218 =
2018-01-19 16:15 METAR KCJR 192115Z AUTO 22003KT 10SM CLR 13/M22 A3004 RMK AO2 T01331224 =
2018-01-19 15:55 METAR KCJR 192055Z AUTO 23007KT 10SM CLR 14/M22 A3004 RMK AO2 T01351224 =
2018-01-19 15:35 METAR KCJR 192035Z AUTO 22005KT 10SM CLR 14/M23 A3004 RMK AO2 T01381228 =
2018-01-19 15:15 METAR KCJR 192015Z AUTO 23004KT 10SM CLR 13/M23 A3004 RMK AO2 T01341234 =
2018-01-19 14:55 METAR KCJR 191955Z AUTO 23006KT 10SM CLR 13/M23 A3004 RMK AO2 T01331228 =
2018-01-19 14:35 METAR KCJR 191935Z AUTO 22004KT 10SM CLR 13/M22 A3004 RMK AO2 T01321224 =
2018-01-19 14:15 METAR KCJR 191915Z AUTO 20005KT 10SM CLR 13/M21 A3004 RMK AO2 T01331211 =
2018-01-19 13:55 METAR KCJR 191855Z AUTO 23007KT 10SM CLR 13/M20 A3005 RMK AO2 T01301196 =
2018-01-19 13:35 METAR KCJR 191835Z AUTO 22007KT 10SM CLR 13/M19 A3005 RMK AO2 T01281189 =
2018-01-19 13:15 METAR KCJR 191815Z AUTO 21005G08KT 10SM CLR 12/M20 A3006 RMK AO2 T01221198 =
2018-01-19 12:55 METAR KCJR 191755Z AUTO 21006KT 10SM CLR 12/M17 A3007 RMK AO2 T01241166 10124
                 21095 =
2018-01-19 12:35 METAR KCJR 191735Z AUTO 17004KT 10SM CLR 12/M15 A3008 RMK AO2 T01151155 =
2018-01-19 12:15 METAR KCJR 191715Z AUTO 23005KT 10SM CLR 11/M16 A3009 RMK AO2 T01081159 =
2018-01-19 11:55 METAR KCJR 191655Z AUTO 20005KT 10SM CLR 10/M15 A3011 RMK AO2 T01001150 =
2018-01-19 11:35 METAR KCJR 191635Z AUTO 21004KT 10SM CLR 10/M15 A3012 RMK AO2 T00961154 =
2018-01-19 11:15 METAR KCJR 191615Z AUTO 18005KT 10SM CLR 09/M13 A3013 RMK AO2 T00881134 =
2018-01-19 10:55 METAR KCJR 191555Z AUTO 19004KT 10SM CLR 08/M12 A3015 RMK AO2 T00751122 =
2018-01-19 10:35 METAR KCJR 191535Z AUTO 00000KT 10SM CLR 05/M11 A3017 RMK AO2 T00521106 =
2018-01-19 10:15 METAR KCJR 191515Z AUTO 00000KT 10SM CLR 04/M10 A3015 RMK AO2 T00411096 =
2018-01-19 09:55 METAR KCJR 191455Z AUTO 00000KT 10SM CLR 02/M08 A3015 RMK AO2 T00221079 =
2018-01-19 09:35 METAR KCJR 191435Z AUTO 00000KT 10SM CLR 00/M08 A3015 RMK AO2 T00011081 =
2018-01-19 09:15 METAR KCJR 191415Z AUTO 00000KT 10SM CLR M01/M09 A3015 RMK AO2 T10151087 =
2018-01-19 08:55 METAR KCJR 191355Z AUTO 00000KT 10SM CLR M03/M08 A3015 RMK AO2 T10331082 =
2018-01-19 08:35 METAR KCJR 191335Z AUTO 00000KT 10SM CLR M05/M09 A3015 RMK AO2 T10501086 =
2018-01-19 08:15 METAR KCJR 191315Z AUTO 00000KT 10SM CLR M08/M10 A3015 RMK AO2 T10791103 =
2018-01-19 07:55 METAR KCJR 191255Z AUTO 00000KT 10SM CLR M09/M11 A3014 RMK AO2 T10881113 =
2018-01-19 07:35 METAR KCJR 191235Z AUTO 00000KT 10SM CLR M09/M11 A3014 RMK AO2 T10921115 =
2018-01-19 07:15 METAR KCJR 191215Z AUTO 00000KT 10SM CLR M09/M12 A3014 RMK AO2 T10941118 =
2018-01-19 06:55 METAR KCJR 191155Z AUTO 00000KT 10SM CLR M09/M11 A3012 RMK AO2 T10921114 11065
                 21096 =
2018-01-19 06:35 METAR KCJR 191135Z AUTO 00000KT 10SM CLR M09/M12 A3012 RMK AO2 T10951116 =
2018-01-19 06:15 METAR KCJR 191115Z AUTO 00000KT 10SM CLR M09/M11 A3012 RMK AO2 T10901111 =
2018-01-19 05:55 METAR KCJR 191055Z AUTO 00000KT 10SM CLR M09/M11 A3011 RMK AO2 T10891112 =
2018-01-19 05:35 METAR KCJR 191035Z AUTO 00000KT 10SM CLR M08/M11 A3010 RMK AO2 T10841109 =
2018-01-19 05:15 METAR KCJR 191015Z AUTO 00000KT 10SM CLR M09/M11 A3011 RMK AO2 T10881110 =
2018-01-19 04:55 METAR KCJR 190955Z AUTO 00000KT 10SM CLR M08/M11 A3011 RMK AO2 T10851110 =
2018-01-19 04:35 METAR KCJR 190935Z AUTO 00000KT 10SM CLR M08/M11 A3010 RMK AO2 T10771108 =
2018-01-19 04:15 METAR KCJR 190915Z AUTO 00000KT 10SM CLR M08/M11 A3010 RMK AO2 T10801108 =
2018-01-19 03:55 METAR KCJR 190855Z AUTO 00000KT 10SM CLR M08/M11 A3010 RMK AO2 T10781108 =
2018-01-19 03:35 METAR KCJR 190835Z AUTO 02003KT 10SM CLR M08/M11 A3010 RMK AO2 T10801110 =
2018-01-19 03:15 METAR KCJR 190815Z AUTO 00000KT 10SM CLR M08/M11 A3010 RMK AO2 T10771108 =
2018-01-19 02:55 METAR KCJR 190755Z AUTO 00000KT 10SM CLR M08/M10 A3011 RMK AO2 T10771105 =
2018-01-19 02:35 METAR KCJR 190735Z AUTO 00000KT 10SM CLR M07/M11 A3011 RMK AO2 T10701109 =
2018-01-19 02:15 METAR KCJR 190715Z AUTO 00000KT 10SM CLR M07/M11 A3011 RMK AO2 T10751108 =
2018-01-19 01:55 METAR KCJR 190655Z AUTO 00000KT 10SM CLR M07/M11 A3012 RMK AO2 T10721109 =
2018-01-19 01:35 METAR KCJR 190635Z AUTO 00000KT 10SM CLR M07/M11 A3012 RMK AO2 T10721106 =
2018-01-19 01:15 METAR KCJR 190615Z AUTO 00000KT 10SM CLR M07/M10 A3012 RMK AO2 T10661103 =
2018-01-19 00:55 METAR KCJR 190555Z AUTO 00000KT 10SM CLR M06/M10 A3013 RMK AO2 T10651105 10012
                 21071 =
2018-01-19 00:35 METAR KCJR 190535Z AUTO 00000KT 10SM CLR M06/M10 A3014 RMK AO2 T10641102 =
2018-01-19 00:15 METAR KCJR 190515Z AUTO 00000KT 10SM CLR M05/M10 A3014 RMK AO2 T10531102 =
2018-01-18 23:55 METAR KCJR 190455Z AUTO 00000KT 10SM CLR M06/M11 A3014 RMK AO2 T10581107
                 400791122 =
2018-01-18 23:35 METAR KCJR 190435Z AUTO 00000KT 10SM CLR M05/M10 A3014 RMK AO2 T10551105 =
2018-01-18 23:15 METAR KCJR 190415Z AUTO 00000KT 10SM CLR M05/M11 A3014 RMK AO2 T10521108 =
2018-01-18 22:55 METAR KCJR 190355Z AUTO 00000KT 10SM CLR M04/M10 A3013 RMK AO2 T10431105 =
2018-01-18 22:35 METAR KCJR 190335Z AUTO 22005KT 10SM CLR M05/M10 A3013 RMK AO2 T10491104 =

Support USWX by starting your Amazon purchase here.